Time;durP1;ratioP1;P1;durP2;ratioP2;P2;SDS_P1;SDS_P2;PMS_P1;PMS_P2;Temp;Humidity;BMP_temperature;BMP_pressure;BME280_temperature;BME280_humidity;BME280_pressure;Samples;Min_cycle;Max_cycle;Signal;HPM_P1;HPM_P2
2021/09/18 00:02:24;;;;;;;0.00;0.00;;;18.60;83.40;;;;;;5033203;28;20025;-75
2021/09/18 00:04:50;;;;;;;0.00;0.00;;;18.50;83.30;;;;;;5033453;28;20026;-76
2021/09/18 00:07:16;;;;;;;0.00;0.00;;;18.60;83.50;;;;;;5033461;28;20039;-75
2021/09/18 00:09:41;;;;;;;0.00;0.00;;;18.60;83.80;;;;;;5034016;28;20113;-74
2021/09/18 00:12:07;;;;;;;0.00;0.00;;;18.60;84.00;;;;;;5033588;28;20033;-75
2021/09/18 00:14:33;;;;;;;0.00;0.00;;;18.60;84.10;;;;;;5033415;28;20022;-75
2021/09/18 00:16:59;;;;;;;0.00;0.00;;;18.60;84.50;;;;;;5034041;28;20413;-76
2021/09/18 00:19:25;;;;;;;0.00;0.00;;;18.60;84.70;;;;;;5033678;28;20041;-75
2021/09/18 00:21:51;;;;;;;0.00;0.00;;;18.60;84.70;;;;;;5033130;28;20029;-74
2021/09/18 00:24:16;;;;;;;0.00;0.00;;;18.60;84.90;;;;;;5033055;28;20033;-76
2021/09/18 00:26:42;;;;;;;0.00;0.00;;;18.60;85.20;;;;;;5032976;28;20091;-75
2021/09/18 00:29:08;;;;;;;0.00;0.00;;;18.60;85.20;;;;;;5033219;28;20523;-76
2021/09/18 00:31:34;;;;;;;0.00;0.00;;;18.70;85.30;;;;;;5033960;28;20018;-74
2021/09/18 00:34:00;;;;;;;0.00;0.00;;;18.70;85.40;;;;;;5033230;28;20026;-75
2021/09/18 00:36:26;;;;;;;0.00;0.00;;;18.70;85.70;;;;;;5032951;28;20457;-76
2021/09/18 00:38:52;;;;;;;0.00;0.00;;;18.80;85.70;;;;;;5032925;28;20106;-75
2021/09/18 00:41:18;;;;;;;0.00;0.00;;;18.80;85.70;;;;;;5035431;28;20033;-75
2021/09/18 00:43:54;;;;;;;0.00;0.00;;;18.80;85.70;;;;;;5035645;28;20386;-75
2021/09/18 00:46:21;;;;;;;0.00;0.00;;;18.80;86.10;;;;;;5037043;28;20052;-75
2021/09/18 00:48:47;;;;;;;0.00;0.00;;;18.80;86.20;;;;;;5035754;28;20492;-73
2021/09/18 00:51:14;;;;;;;0.00;0.00;;;18.80;86.30;;;;;;5036872;28;20022;-75
2021/09/18 00:53:40;;;;;;;0.00;0.00;;;18.80;86.60;;;;;;5036036;28;20039;-76
2021/09/18 00:56:06;;;;;;;0.00;0.00;;;18.80;86.80;;;;;;5051532;28;20570;-74
2021/09/18 00:58:32;;;;;;;0.00;0.00;;;18.80;87.30;;;;;;5036896;28;20021;-76
2021/09/18 01:00:57;;;;;;;0.00;0.00;;;18.80;87.50;;;;;;5036530;28;20018;-75
2021/09/18 01:03:25;;;;;;;0.00;0.00;;;18.80;88.00;;;;;;5035272;28;20048;-75
2021/09/18 01:05:50;;;;;;;0.00;0.00;;;18.90;88.00;;;;;;5036349;28;20389;-75
2021/09/18 01:08:22;;;;;;;0.00;0.00;;;18.80;88.20;;;;;;5036367;28;20029;-75
2021/09/18 01:10:48;;;;;;;0.00;0.00;;;18.80;88.60;;;;;;5036279;28;20029;-75
2021/09/18 01:13:18;;;;;;;0.00;0.00;;;18.80;88.90;;;;;;5036517;28;20442;-75
2021/09/18 01:15:44;;;;;;;0.00;0.00;;;18.80;89.10;;;;;;5036715;28;20032;-74
2021/09/18 01:18:11;;;;;;;0.00;0.00;;;18.80;89.30;;;;;;5036488;28;20504;-75
2021/09/18 01:20:38;;;;;;;0.00;0.00;;;18.80;89.50;;;;;;5036672;28;20029;-74
2021/09/18 01:23:06;;;;;;;0.00;0.00;;;18.80;89.90;;;;;;5035077;28;20117;-74
2021/09/18 01:25:34;;;;;;;0.00;0.00;;;18.70;90.00;;;;;;5036081;28;20079;-74
2021/09/18 01:28:01;;;;;;;0.00;0.00;;;18.70;90.30;;;;;;5035753;28;20034;-75
2021/09/18 01:30:29;;;;;;;0.00;0.00;;;18.70;90.30;;;;;;5036037;28;20029;-75
2021/09/18 01:32:57;;;;;;;0.00;0.00;;;18.70;90.70;;;;;;5034673;28;20079;-74
2021/09/18 01:35:23;;;;;;;0.00;0.00;;;18.70;90.50;;;;;;5035736;28;20470;-74
2021/09/18 01:37:49;;;;;;;0.00;0.00;;;18.70;90.60;;;;;;5035978;28;20114;-75
2021/09/18 01:40:21;;;;;;;0.00;0.00;;;18.70;90.60;;;;;;5034493;28;20029;-74
2021/09/18 01:42:47;;;;;;;0.00;0.00;;;18.70;90.70;;;;;;5035491;28;20465;-75
2021/09/18 01:45:14;;;;;;;0.00;0.00;;;18.70;90.70;;;;;;5035822;28;20124;-75
2021/09/18 01:47:45;;;;;;;0.00;0.00;;;18.70;90.70;;;;;;5036219;28;20446;-75
2021/09/18 01:50:29;;;;;;;0.00;0.00;;;18.70;90.80;;;;;;5035357;28;20034;-75
2021/09/18 01:52:59;;;;;;;0.00;0.00;;;18.60;90.80;;;;;;5034609;28;20040;-76
2021/09/18 01:55:25;;;;;;;0.00;0.00;;;18.60;90.80;;;;;;5035578;28;20049;-75
2021/09/18 01:57:53;;;;;;;0.00;0.00;;;18.60;90.80;;;;;;5036298;28;20388;-75
2021/09/18 02:00:19;;;;;;;0.00;0.00;;;18.60;90.90;;;;;;5035625;28;20099;-75
2021/09/18 02:02:46;;;;;;;0.00;0.00;;;18.70;90.90;;;;;;5035251;28;20022;-75
2021/09/18 02:05:14;;;;;;;0.00;0.00;;;18.70;90.80;;;;;;5036088;28;20073;-75
2021/09/18 02:07:40;;;;;;;0.00;0.00;;;18.60;90.70;;;;;;5035502;28;20042;-75
2021/09/18 02:10:09;;;;;;;0.00;0.00;;;18.60;90.80;;;;;;5035462;28;20110;-76
2021/09/18 02:12:35;;;;;;;0.00;0.00;;;18.60;90.70;;;;;;5035465;28;20018;-75
2021/09/18 02:15:01;;;;;;;0.00;0.00;;;18.70;90.60;;;;;;5050525;28;20096;-75
2021/09/18 02:17:27;;;;;;;0.00;0.00;;;18.70;90.60;;;;;;5035060;28;20094;-75
2021/09/18 02:19:53;;;;;;;0.00;0.00;;;18.70;90.60;;;;;;5034718;28;20025;-75
2021/09/18 02:22:19;;;;;;;0.00;0.00;;;18.70;90.50;;;;;;5035288;28;20044;-75
2021/09/18 02:24:45;;;;;;;0.00;0.00;;;18.70;90.30;;;;;;5034653;28;20032;-75
2021/09/18 02:27:10;;;;;;;0.00;0.00;;;18.70;90.30;;;;;;5034741;28;20038;-75
2021/09/18 02:29:36;;;;;;;0.00;0.00;;;18.70;90.20;;;;;;5034881;28;20030;-75
2021/09/18 02:32:03;;;;;;;0.00;0.00;;;18.70;90.10;;;;;;5034726;28;20103;-75
2021/09/18 02:34:29;;;;;;;0.00;0.00;;;18.70;90.10;;;;;;5035507;28;20026;-74
2021/09/18 02:36:55;;;;;;;0.00;0.00;;;18.80;90.00;;;;;;5033341;28;20033;-78
2021/09/18 02:39:20;;;;;;;0.00;0.00;;;18.80;90.00;;;;;;5033870;28;20036;-75
2021/09/18 02:41:46;;;;;;;0.00;0.00;;;18.70;89.60;;;;;;5034588;28;20536;-76
2021/09/18 02:44:12;;;;;;;0.00;0.00;;;18.80;89.40;;;;;;5034576;28;20112;-74
2021/09/18 02:46:38;;;;;;;0.00;0.00;;;18.80;89.00;;;;;;5034194;28;20025;-74
2021/09/18 02:49:03;;;;;;;0.00;0.00;;;18.80;88.70;;;;;;5034384;28;20470;-74
2021/09/18 02:51:29;;;;;;;0.00;0.00;;;18.80;88.50;;;;;;5034439;28;20095;-74
2021/09/18 02:53:55;;;;;;;0.00;0.00;;;18.90;88.40;;;;;;5034037;28;20029;-75
2021/09/18 02:56:20;;;;;;;0.00;0.00;;;18.90;88.20;;;;;;5033806;28;20099;-75
2021/09/18 02:58:46;;;;;;;0.00;0.00;;;18.90;88.00;;;;;;5034605;28;20462;-75
2021/09/18 03:01:12;;;;;;;0.00;0.00;;;18.90;87.80;;;;;;5034442;28;20026;-75
2021/09/18 03:03:37;;;;;;;0.00;0.00;;;18.90;87.50;;;;;;5034161;28;20438;-75
2021/09/18 03:06:03;;;;;;;0.00;0.00;;;18.90;87.20;;;;;;5032856;28;20040;-75
2021/09/18 03:08:29;;;;;;;0.00;0.00;;;18.90;87.00;;;;;;5034085;28;20033;-75
2021/09/18 03:10:55;;;;;;;0.00;0.00;;;18.90;86.80;;;;;;5050134;28;20111;-75
2021/09/18 03:13:20;;;;;;;0.00;0.00;;;18.90;86.60;;;;;;5049164;28;20034;-75
2021/09/18 03:15:46;;;;;;;0.00;0.00;;;18.90;86.30;;;;;;5034117;28;20076;-75
2021/09/18 03:18:12;;;;;;;0.00;0.00;;;18.90;86.10;;;;;;5033629;28;20026;-75
2021/09/18 03:20:38;;;;;;;0.00;0.00;;;18.90;85.90;;;;;;5033728;28;20029;-75
2021/09/18 03:23:03;;;;;;;0.00;0.00;;;18.90;85.90;;;;;;5034229;28;20029;-75
2021/09/18 03:25:29;;;;;;;0.00;0.00;;;18.90;85.70;;;;;;5033992;28;20040;-75
2021/09/18 03:27:55;;;;;;;0.00;0.00;;;18.90;85.70;;;;;;5032580;28;20034;-75
2021/09/18 03:30:21;;;;;;;0.00;0.00;;;18.90;85.70;;;;;;5033820;28;20040;-75
2021/09/18 03:32:47;;;;;;;0.00;0.00;;;18.90;85.70;;;;;;5033861;28;20028;-73
2021/09/18 03:35:12;;;;;;;0.00;0.00;;;18.90;85.60;;;;;;5033846;28;20492;-75
2021/09/18 03:37:38;;;;;;;0.00;0.00;;;18.90;85.60;;;;;;5033725;28;20048;-76
2021/09/18 03:40:06;;;;;;;0.00;0.00;;;18.90;85.60;;;;;;5032213;28;20022;-75
2021/09/18 03:42:32;;;;;;;0.00;0.00;;;19.00;85.60;;;;;;5033413;28;20026;-74
2021/09/18 03:44:58;;;;;;;0.00;0.00;;;19.00;85.60;;;;;;5033459;28;20492;-74
2021/09/18 03:47:24;;;;;;;0.00;0.00;;;19.00;85.50;;;;;;5033341;28;20103;-75
2021/09/18 03:49:50;;;;;;;0.00;0.00;;;19.00;85.50;;;;;;5033712;28;20026;-75
2021/09/18 03:52:15;;;;;;;0.00;0.00;;;19.00;85.60;;;;;;5033971;28;20107;-74
2021/09/18 03:54:41;;;;;;;0.00;0.00;;;19.00;85.70;;;;;;5033625;28;20104;-76
2021/09/18 03:57:07;;;;;;;0.00;0.00;;;18.90;85.60;;;;;;5034109;28;20433;-75
2021/09/18 03:59:33;;;;;;;0.00;0.00;;;19.00;85.80;;;;;;5033560;28;20022;-75
2021/09/18 04:01:58;;;;;;;0.00;0.00;;;19.00;85.80;;;;;;5033563;28;20025;-75
2021/09/18 04:04:24;;;;;;;0.00;0.00;;;19.00;85.90;;;;;;5033448;28;20084;-75
2021/09/18 04:06:50;;;;;;;0.00;0.00;;;19.00;86.00;;;;;;5033616;28;20095;-75
2021/09/18 04:09:16;;;;;;;0.00;0.00;;;19.00;86.10;;;;;;5034063;28;20462;-75
2021/09/18 04:11:41;;;;;;;0.00;0.00;;;19.00;86.30;;;;;;5033463;28;20025;-75
2021/09/18 04:14:07;;;;;;;0.00;0.00;;;19.00;86.40;;;;;;5032112;28;20477;-75
2021/09/18 04:16:33;;;;;;;0.00;0.00;;;19.00;86.50;;;;;;5036594;28;20034;-75
2021/09/18 04:18:59;;;;;;;0.00;0.00;;;19.00;86.60;;;;;;5037365;28;20369;-75
2021/09/18 04:21:24;;;;;;;0.00;0.00;;;19.00;86.60;;;;;;5037502;28;20029;-75
2021/09/18 04:23:50;;;;;;;0.00;0.00;;;19.10;86.70;;;;;;5037582;28;20026;-76
2021/09/18 04:26:16;;;;;;;0.00;0.00;;;19.10;86.90;;;;;;5037183;28;20478;-76
2021/09/18 04:28:42;;;;;;;0.00;0.00;;;19.10;86.90;;;;;;5035943;28;20030;-75
2021/09/18 04:31:08;;;;;;;0.00;0.00;;;19.10;87.10;;;;;;5037167;28;20075;-76
2021/09/18 04:33:34;;;;;;;0.00;0.00;;;19.20;87.10;;;;;;5035693;28;20484;-74
2021/09/18 04:36:00;;;;;;;0.00;0.00;;;19.20;87.00;;;;;;5036731;28;20026;-75
2021/09/18 04:38:26;;;;;;;0.00;0.00;;;19.30;87.00;;;;;;5035266;28;20029;-76
2021/09/18 04:40:52;;;;;;;0.00;0.00;;;19.30;86.90;;;;;;5035706;28;20080;-76
2021/09/18 04:43:18;;;;;;;0.00;0.00;;;19.40;86.80;;;;;;5036876;28;20034;-75
2021/09/18 04:45:44;;;;;;;0.00;0.00;;;19.40;86.70;;;;;;5036807;28;20033;-75
2021/09/18 04:48:09;;;;;;;0.00;0.00;;;19.40;86.50;;;;;;5036391;28;20072;-75
2021/09/18 04:50:35;;;;;;;0.00;0.00;;;19.50;86.40;;;;;;5036676;28;20399;-75
2021/09/18 04:53:01;;;;;;;0.00;0.00;;;19.50;86.20;;;;;;5036570;28;20496;-75
2021/09/18 04:55:26;;;;;;;0.00;0.00;;;19.50;86.20;;;;;;5036645;28;20053;-75
2021/09/18 04:57:52;;;;;;;0.00;0.00;;;19.50;86.10;;;;;;5034904;28;20076;-74
2021/09/18 05:00:18;;;;;;;0.00;0.00;;;19.60;86.10;;;;;;5036217;28;20034;-76
2021/09/18 05:02:44;;;;;;;0.00;0.00;;;19.60;86.00;;;;;;5036737;28;20365;-76
2021/09/18 05:05:10;;;;;;;0.00;0.00;;;19.70;85.90;;;;;;5051757;28;20462;-74
2021/09/18 05:07:36;;;;;;;0.00;0.00;;;19.70;85.80;;;;;;5036811;28;20033;-75
2021/09/18 05:10:03;;;;;;;0.00;0.00;;;19.80;85.70;;;;;;5036459;28;20116;-74
2021/09/18 05:12:28;;;;;;;0.00;0.00;;;19.80;85.50;;;;;;5035929;28;20021;-75
2021/09/18 05:14:54;;;;;;;0.00;0.00;;;19.80;85.40;;;;;;5035974;28;20021;-75
2021/09/18 05:17:20;;;;;;;0.00;0.00;;;19.90;85.30;;;;;;5035039;28;20037;-75
2021/09/18 05:19:46;;;;;;;0.00;0.00;;;20.00;85.00;;;;;;5035847;28;20029;-76
2021/09/18 05:22:11;;;;;;;0.00;0.00;;;20.00;84.60;;;;;;5034834;28;20033;-75
2021/09/18 05:24:37;;;;;;;0.00;0.00;;;20.10;84.50;;;;;;5036192;28;20091;-76
2021/09/18 05:27:05;;;;;;;0.00;0.00;;;20.10;84.30;;;;;;5035852;28;20033;-76
2021/09/18 05:29:31;;;;;;;0.00;0.00;;;20.10;84.00;;;;;;5036025;28;20034;-76
2021/09/18 05:31:57;;;;;;;0.00;0.00;;;20.10;83.80;;;;;;5035775;28;20017;-77
2021/09/18 05:34:22;;;;;;;0.00;0.00;;;20.20;84.60;;;;;;5035775;28;20458;-76
2021/09/18 05:36:49;;;;;;;0.00;0.00;;;20.20;83.80;;;;;;5034508;28;20041;-76
2021/09/18 05:39:15;;;;;;;0.00;0.00;;;20.30;83.70;;;;;;5035712;28;20030;-77
2021/09/18 05:41:56;;;;;;;0.00;0.00;;;20.30;83.30;;;;;;5034699;28;20350;-76
2021/09/18 05:48:05;;;;;;;0.00;0.00;;;20.20;83.30;;;;;;5034197;28;20512;-76
2021/09/18 05:51:15;;;;;;;0.00;0.00;;;20.30;83.30;;;;;;5035265;28;20037;-80
2021/09/18 05:54:09;;;;;;;0.00;0.00;;;20.30;83.10;;;;;;5050197;28;20064;-77
2021/09/18 05:56:34;;;;;;;0.00;0.00;;;20.30;82.90;;;;;;5035673;28;20049;-77
2021/09/18 05:59:01;;;;;;;0.00;0.00;;;20.40;82.90;;;;;;5033737;28;20102;-76
2021/09/18 06:01:27;;;;;;;0.00;0.00;;;20.40;82.80;;;;;;5034981;28;20032;-76
2021/09/18 06:03:53;;;;;;;0.00;0.00;;;20.30;82.90;;;;;;5035282;28;20034;-77
2021/09/18 06:06:20;;;;;;;0.00;0.00;;;20.30;83.00;;;;;;5035465;28;20102;-76
2021/09/18 06:08:46;;;;;;;0.00;0.00;;;20.40;83.00;;;;;;5034141;28;20033;-76
2021/09/18 06:11:12;;;;;;;0.00;0.00;;;20.40;83.00;;;;;;5034298;28;20026;-79
2021/09/18 06:13:38;;;;;;;0.00;0.00;;;20.40;82.90;;;;;;5035425;28;20095;-76
2021/09/18 06:16:04;;;;;;;0.00;0.00;;;20.40;82.90;;;;;;5035117;28;20029;-77
2021/09/18 06:18:30;;;;;;;0.00;0.00;;;20.40;83.00;;;;;;5034239;28;20022;-75
2021/09/18 06:20:57;;;;;;;0.00;0.00;;;20.50;82.90;;;;;;5035222;28;20090;-76
2021/09/18 06:23:23;;;;;;;0.00;0.00;;;20.60;82.80;;;;;;5033601;28;20025;-76
2021/09/18 06:25:49;;;;;;;0.00;0.00;;;20.70;82.40;;;;;;5034704;28;20029;-76
2021/09/18 06:28:14;;;;;;;0.00;0.00;;;20.70;82.20;;;;;;5035071;28;20036;-77
2021/09/18 06:30:41;;;;;;;0.00;0.00;;;20.90;82.00;;;;;;5033582;28;20029;-76
2021/09/18 06:33:07;;;;;;;0.00;0.00;;;20.90;81.80;;;;;;5034335;28;20036;-76
2021/09/18 06:35:33;;;;;;;0.00;0.00;;;21.00;81.60;;;;;;5050645;28;20025;-77
2021/09/18 06:37:58;;;;;;;0.00;0.00;;;21.00;81.30;;;;;;5034288;28;20050;-76
2021/09/18 06:40:25;;;;;;;0.00;0.00;;;21.10;81.20;;;;;;5034134;28;20025;-77
2021/09/18 06:42:51;;;;;;;0.00;0.00;;;21.10;80.90;;;;;;5033686;28;20033;-77
2021/09/18 06:45:17;;;;;;;0.00;0.00;;;21.10;81.00;;;;;;5034224;28;20382;-76
2021/09/18 06:47:43;;;;;;;0.00;0.00;;;21.10;81.00;;;;;;5033217;28;20037;-77
2021/09/18 06:50:10;;;;;;;0.00;0.00;;;21.20;80.80;;;;;;5034529;28;20034;-77
2021/09/18 06:52:36;;;;;;;0.00;0.00;;;21.20;80.90;;;;;;5034572;28;20029;-77
2021/09/18 06:55:02;;;;;;;0.00;0.00;;;21.20;80.90;;;;;;5034370;28;20087;-76
2021/09/18 06:57:27;;;;;;;0.00;0.00;;;21.30;80.90;;;;;;5033321;28;20053;-76
2021/09/18 06:59:53;;;;;;;0.00;0.00;;;21.20;80.60;;;;;;5032922;28;20358;-77
2021/09/18 07:02:19;;;;;;;0.00;0.00;;;21.30;80.70;;;;;;5034211;28;20446;-76
2021/09/18 07:04:45;;;;;;;0.00;0.00;;;21.30;80.60;;;;;;5033124;28;20448;-77
2021/09/18 07:07:10;;;;;;;0.00;0.00;;;21.30;80.80;;;;;;5033729;28;20044;-77
2021/09/18 07:09:36;;;;;;;0.00;0.00;;;21.20;80.80;;;;;;5034908;28;20033;-77
2021/09/18 07:12:03;;;;;;;0.00;0.00;;;21.10;81.00;;;;;;5050190;28;20025;-76
2021/09/18 07:14:29;;;;;;;0.00;0.00;;;21.10;81.20;;;;;;5034584;28;20026;-77
2021/09/18 07:16:56;;;;;;;0.00;0.00;;;21.10;81.30;;;;;;5034483;28;20420;-77
2021/09/18 07:19:26;;;;;;;0.00;0.00;;;21.10;81.60;;;;;;5033777;28;20083;-75
2021/09/18 07:21:55;;;;;;;0.00;0.00;;;21.00;81.60;;;;;;5033625;28;20079;-77
2021/09/18 07:24:31;;;;;;;0.00;0.00;;;21.00;82.00;;;;;;5034009;28;20078;-76
2021/09/18 07:27:13;;;;;;;0.00;0.00;;;21.00;82.20;;;;;;5033566;28;20026;-76
2021/09/18 07:29:39;;;;;;;0.00;0.00;;;20.90;83.00;;;;;;5034064;28;20423;-75
2021/09/18 07:32:07;;;;;;;0.00;0.00;;;20.90;82.30;;;;;;5033780;28;20075;-77
2021/09/18 07:34:34;;;;;;;0.00;0.00;;;20.90;82.40;;;;;;5033480;28;20023;-77
2021/09/18 07:37:02;;;;;;;0.00;0.00;;;20.90;82.70;;;;;;5034140;28;20131;-76
2021/09/18 07:39:28;;;;;;;0.00;0.00;;;20.80;82.70;;;;;;5033335;28;20077;-76
2021/09/18 07:41:54;;;;;;;0.00;0.00;;;20.90;82.90;;;;;;5033975;28;20373;-76
2021/09/18 07:44:23;;;;;;;0.17;0.00;;;20.80;82.90;;;;;;5032456;28;20032;-77
2021/09/18 07:46:49;;;;;;;0.00;0.00;;;20.80;83.00;;;;;;5033415;28;20107;-77
2021/09/18 07:49:16;;;;;;;0.00;0.00;;;20.80;83.20;;;;;;5033432;28;20470;-76
2021/09/18 07:51:43;;;;;;;0.00;0.00;;;20.80;83.30;;;;;;5035651;28;20029;-76
2021/09/18 07:54:08;;;;;;;0.00;0.00;;;20.80;83.40;;;;;;5037781;28;20025;-77
2021/09/18 07:56:34;;;;;;;0.00;0.00;;;20.80;83.60;;;;;;5036234;28;20140;-76
2021/09/18 07:59:00;;;;;;;0.00;0.00;;;20.80;83.70;;;;;;5037937;28;20030;-76
2021/09/18 08:01:27;;;;;;;0.00;0.00;;;20.90;83.60;;;;;;5037310;28;20108;-77
2021/09/18 08:03:58;;;;;;;0.00;0.00;;;20.90;83.40;;;;;;5037452;28;20511;-76
2021/09/18 08:06:25;;;;;;;0.00;0.00;;;20.90;83.40;;;;;;5037372;28;20034;-76
2021/09/18 08:08:51;;;;;;;0.00;0.00;;;20.90;83.50;;;;;;5036171;28;20106;-76
2021/09/18 08:11:19;;;;;;;0.00;0.00;;;20.90;83.70;;;;;;5035995;28;20477;-77
2021/09/18 08:13:49;;;;;;;0.00;0.00;;;20.90;83.60;;;;;;5037324;28;20484;-76
2021/09/18 08:16:15;;;;;;;0.00;0.00;;;20.90;83.60;;;;;;5037140;28;20359;-77
2021/09/18 08:18:41;;;;;;;0.00;0.00;;;21.00;83.50;;;;;;5037132;28;20029;-75
2021/09/18 08:21:07;;;;;;;0.00;0.00;;;21.00;83.30;;;;;;5035890;28;20021;-77
2021/09/18 08:23:33;;;;;;;0.00;0.00;;;21.00;83.30;;;;;;5037637;28;20429;-76
2021/09/18 08:25:59;;;;;;;0.00;0.00;;;21.00;83.40;;;;;;5037119;28;20029;-76
2021/09/18 08:28:24;;;;;;;0.00;0.00;;;21.00;83.30;;;;;;5037015;28;20032;-76
2021/09/18 08:30:50;;;;;;;0.00;0.00;;;21.00;83.50;;;;;;5036713;28;20087;-76
2021/09/18 08:33:16;;;;;;;0.00;0.00;;;21.10;83.60;;;;;;5036834;28;20424;-78
2021/09/18 08:35:42;;;;;;;0.00;0.00;;;21.10;83.60;;;;;;5036567;28;20064;-76
2021/09/18 08:38:07;;;;;;;0.00;0.00;;;21.10;83.70;;;;;;5037189;28;20076;-75
2021/09/18 08:40:37;;;;;;;0.00;0.00;;;21.10;83.90;;;;;;5036790;28;20029;-76
2021/09/18 08:43:02;;;;;;;0.00;0.00;;;21.10;84.00;;;;;;5036493;28;20029;-77
2021/09/18 08:45:28;;;;;;;0.00;0.00;;;21.10;83.90;;;;;;5036470;28;20022;-77
2021/09/18 08:47:54;;;;;;;0.00;0.00;;;21.10;84.10;;;;;;5052308;28;20041;-76
2021/09/18 08:50:21;;;;;;;0.00;0.00;;;21.00;84.30;;;;;;5036606;28;20033;-77
2021/09/18 08:52:49;;;;;;;0.00;0.00;;;21.00;84.80;;;;;;5036581;28;20100;-77
2021/09/18 08:55:16;;;;;;;0.00;0.00;;;20.90;85.10;;;;;;5036604;28;20021;-77
2021/09/18 08:57:43;;;;;;;0.00;0.00;;;20.90;85.50;;;;;;5036925;28;20385;-77
2021/09/18 09:00:29;;;;;;;0.00;0.00;;;20.80;86.00;;;;;;5035285;28;20355;-76
2021/09/18 09:02:56;;;;;;;0.00;0.00;;;20.80;86.60;;;;;;5035741;28;20032;-76
2021/09/18 09:05:27;;;;;;;0.00;0.00;;;20.80;87.00;;;;;;5036223;28;20029;-76
2021/09/18 09:08:21;;;;;;;0.00;0.00;;;20.70;87.00;;;;;;5035903;28;20461;-77
2021/09/18 09:10:48;;;;;;;0.00;0.00;;;20.70;87.30;;;;;;5036125;28;20045;-76
2021/09/18 09:13:16;;;;;;;0.00;0.00;;;20.80;87.80;;;;;;5036032;28;20047;-76
2021/09/18 09:15:46;;;;;;;0.00;0.00;;;20.90;88.10;;;;;;5036335;28;20022;-76
2021/09/18 09:18:25;;;;;;;0.00;0.00;;;21.10;87.40;;;;;;5035844;28;20359;-76
2021/09/18 09:21:10;;;;;;;0.00;0.00;;;21.20;86.60;;;;;;5034781;28;20022;-76
2021/09/18 09:23:37;;;;;;;0.00;0.00;;;21.30;86.10;;;;;;5036159;28;20033;-75
2021/09/18 09:26:03;;;;;;;0.00;0.00;;;21.20;86.00;;;;;;5036050;28;20432;-76
2021/09/18 09:28:40;;;;;;;0.00;0.00;;;21.30;85.90;;;;;;5036306;28;20319;-76
2021/09/18 09:31:18;;;;;;;0.00;0.00;;;21.30;85.60;;;;;;5036004;28;20022;-77
2021/09/18 09:34:14;;;;;;;0.00;0.00;;;21.20;85.50;;;;;;5036503;28;20032;-77
2021/09/18 09:36:50;;;;;;;0.00;0.00;;;21.20;85.60;;;;;;5036774;28;20155;-77
2021/09/18 09:39:20;;;;;;;0.00;0.00;;;21.20;85.80;;;;;;5036899;28;20026;-78
2021/09/18 09:41:49;;;;;;;0.00;0.00;;;21.20;86.00;;;;;;5037324;28;20374;-75
2021/09/18 09:44:23;;;;;;;0.00;0.00;;;21.30;86.10;;;;;;5035736;28;20025;-76
2021/09/18 09:47:04;;;;;;;;;;;21.30;86.00;;;;;;5051708;28;20033;-75
2021/09/18 09:49:44;;;;;;;0.00;0.00;;;21.30;85.60;;;;;;5038621;28;19920;-76
2021/09/18 09:52:25;;;;;;;0.00;0.00;;;21.30;85.90;;;;;;5036118;28;20021;-76
2021/09/18 09:54:58;;;;;;;0.00;0.00;;;21.30;86.50;;;;;;5035587;28;20017;-77
2021/09/18 09:57:24;;;;;;;0.00;0.00;;;21.30;86.40;;;;;;5035490;28;20053;-74
2021/09/18 09:59:58;;;;;;;0.00;0.00;;;21.20;86.50;;;;;;5035408;28;20029;-74
2021/09/18 10:02:40;;;;;;;0.00;0.00;;;21.20;86.70;;;;;;5035549;28;20057;-75
2021/09/18 10:05:12;;;;;;;0.00;0.00;;;21.10;86.80;;;;;;5035317;28;20496;-77
2021/09/18 10:07:38;;;;;;;0.00;0.00;;;21.00;87.00;;;;;;5035368;28;20025;-76
2021/09/18 10:10:07;;;;;;;0.00;0.00;;;21.00;87.40;;;;;;5050714;28;20033;-78
2021/09/18 10:12:34;;;;;;;0.00;0.00;;;20.90;87.90;;;;;;5034423;28;20095;-76
2021/09/18 10:15:05;;;;;;;0.00;0.00;;;20.80;88.20;;;;;;5034928;28;20030;-75
2021/09/18 10:17:35;;;;;;;0.00;0.00;;;20.80;88.70;;;;;;5034786;28;20507;-74
2021/09/18 10:25:38;;;;;;;0.00;0.00;;;20.80;89.00;;;;;;5035050;28;20456;-77
2021/09/18 10:28:13;;;;;;;0.00;0.00;;;20.70;89.20;;;;;;5034749;28;20034;-76
2021/09/18 10:30:43;;;;;;;0.00;0.00;;;20.70;89.30;;;;;;5034689;28;20037;-76
2021/09/18 10:33:48;;;;;;;0.00;0.00;;;20.70;89.50;;;;;;5034767;28;20026;-76
2021/09/18 10:36:15;;;;;;;;;;;20.70;89.60;;;;;;5035148;28;20032;-76
2021/09/18 10:38:45;;;;;;;0.00;0.00;;;20.60;89.20;;;;;;5034649;28;20003;-76
2021/09/18 10:41:36;;;;;;;0.00;0.00;;;20.50;89.40;;;;;;5034477;28;20422;-75
2021/09/18 10:44:02;;;;;;;0.00;0.00;;;20.50;90.10;;;;;;5034231;28;20038;-77
2021/09/18 10:46:48;;;;;;;0.00;0.00;;;20.40;90.30;;;;;;5033808;28;20032;-77
2021/09/18 10:49:33;;;;;;;0.00;0.00;;;20.40;90.60;;;;;;5034266;28;20378;-76
2021/09/18 10:52:18;;;;;;;0.00;0.00;;;20.40;90.60;;;;;;5033989;28;20026;-76
2021/09/18 10:57:54;;;;;;;0.00;0.00;;;20.40;90.80;;;;;;5036421;28;20378;-76
2021/09/18 11:00:44;;;;;;;0.00;0.00;;;20.30;90.90;;;;;;5034470;28;20049;-75
2021/09/18 11:03:11;;;;;;;0.00;0.00;;;20.20;91.30;;;;;;5034271;28;20033;-77
2021/09/18 11:05:37;;;;;;;0.00;0.00;;;20.20;91.90;;;;;;5034946;28;20350;-76
2021/09/18 11:08:13;;;;;;;0.10;0.10;;;20.00;92.50;;;;;;5034361;28;20029;-76
2021/09/18 11:10:44;;;;;;;0.10;0.10;;;19.90;93.10;;;;;;5034199;28;20022;-76
2021/09/18 11:13:11;;;;;;;0.00;0.00;;;19.90;93.90;;;;;;5034061;28;20036;-75
2021/09/18 11:15:43;;;;;;;0.00;0.00;;;19.80;94.20;;;;;;5034124;28;20079;-76
2021/09/18 11:18:21;;;;;;;0.00;0.00;;;19.80;95.00;;;;;;5032792;28;20040;-76
2021/09/18 11:20:47;;;;;;;0.00;0.00;;;19.70;95.20;;;;;;5032733;28;20026;-76
2021/09/18 11:23:12;;;;;;;0.00;0.00;;;19.60;95.70;;;;;;5034199;28;20063;-76
2021/09/18 11:25:43;;;;;;;0.10;0.03;;;19.60;95.50;;;;;;5033866;28;20462;-75
2021/09/18 11:28:14;;;;;;;0.00;0.00;;;19.50;95.30;;;;;;5032533;28;20045;-76
2021/09/18 11:30:45;;;;;;;0.00;0.00;;;19.40;96.00;;;;;;5033888;28;20033;-77
2021/09/18 11:33:15;;;;;;;0.00;0.00;;;19.30;95.40;;;;;;5034255;28;20045;-75
2021/09/18 11:35:55;;;;;;;0.00;0.00;;;19.20;95.60;;;;;;5035777;28;20401;-77
2021/09/18 11:38:27;;;;;;;0.00;0.00;;;19.00;95.80;;;;;;5035360;28;20099;-76
2021/09/18 11:41:12;;;;;;;0.00;0.00;;;18.90;96.10;;;;;;5035316;28;20024;-78
2021/09/18 11:43:39;;;;;;;0.00;0.00;;;18.90;96.60;;;;;;5033655;28;20099;-76
2021/09/18 11:46:06;;;;;;;0.00;0.00;;;18.80;96.90;;;;;;5033660;28;20030;-77
2021/09/18 11:48:32;;;;;;;0.00;0.00;;;18.80;97.40;;;;;;5032414;28;20033;-76
2021/09/18 11:51:00;;;;;;;0.00;0.00;;;18.80;97.70;;;;;;5033314;28;20021;-77
2021/09/18 11:53:26;;;;;;;0.00;0.00;;;18.80;97.40;;;;;;5033365;28;20431;-76
2021/09/18 11:55:55;;;;;;;0.00;0.00;;;18.90;97.40;;;;;;5048854;28;20154;-76
2021/09/18 11:58:33;;;;;;;0.00;0.00;;;18.80;97.80;;;;;;5033464;28;20065;-75
2021/09/18 12:01:02;;;;;;;0.00;0.00;;;18.90;98.00;;;;;;5034154;28;20080;-74
2021/09/18 12:03:38;;;;;;;0.00;0.00;;;18.90;98.00;;;;;;5036148;28;20021;-74
2021/09/18 12:06:17;;;;;;;0.00;0.00;;;19.00;98.30;;;;;;5035431;28;20026;-75
2021/09/18 12:08:47;;;;;;;0.00;0.00;;;19.00;97.90;;;;;;5051622;28;20021;-77
2021/09/18 12:11:17;;;;;;;0.00;0.00;;;19.00;98.00;;;;;;5050590;28;20087;-77
2021/09/18 12:13:47;;;;;;;0.00;0.00;;;19.10;98.10;;;;;;5035100;28;20026;-76
2021/09/18 12:16:15;;;;;;;0.00;0.00;;;19.10;98.10;;;;;;5033559;28;20025;-75
2021/09/18 12:18:46;;;;;;;0.00;0.00;;;19.20;98.30;;;;;;5031817;28;20075;-75
2021/09/18 12:21:23;;;;;;;0.00;0.00;;;19.20;98.50;;;;;;5033475;28;20025;-77
2021/09/18 12:24:07;;;;;;;0.00;0.00;;;19.30;98.30;;;;;;5033786;28;20029;-76
2021/09/18 12:26:39;;;;;;;0.00;0.00;;;19.40;98.20;;;;;;5033257;28;20438;-76
2021/09/18 12:29:15;;;;;;;0.00;0.00;;;19.50;98.30;;;;;;5033944;28;20474;-76
2021/09/18 12:31:43;;;;;;;0.00;0.00;;;19.50;98.10;;;;;;5035969;28;20048;-75
2021/09/18 12:34:16;;;;;;;0.00;0.00;;;19.50;97.70;;;;;;5034209;28;20037;-75
2021/09/18 12:36:47;;;;;;;0.00;0.00;;;19.60;97.90;;;;;;5034799;28;20429;-75
2021/09/18 12:39:17;;;;;;;0.00;0.00;;;19.60;97.80;;;;;;5036947;28;20029;-75
2021/09/18 12:41:44;;;;;;;0.00;0.00;;;19.70;97.70;;;;;;5036485;28;20167;-76
2021/09/18 12:44:19;;;;;;;0.00;0.00;;;19.70;97.40;;;;;;5037466;28;20083;-76
2021/09/18 12:46:51;;;;;;;0.00;0.00;;;19.70;97.10;;;;;;5036475;28;20025;-75
2021/09/18 12:49:20;;;;;;;0.00;0.00;;;19.70;96.90;;;;;;5036829;28;20056;-76
2021/09/18 12:51:57;;;;;;;0.00;0.00;;;19.60;97.00;;;;;;5036984;28;20030;-76
2021/09/18 12:54:23;;;;;;;0.00;0.00;;;19.60;97.10;;;;;;5037395;28;20025;-75
2021/09/18 12:56:49;;;;;;;0.00;0.00;;;19.60;97.40;;;;;;5034994;28;20370;-76
2021/09/18 12:59:20;;;;;;;0.00;0.00;;;19.70;97.80;;;;;;5036743;28;20140;-75
2021/09/18 13:01:50;;;;;;;0.00;0.00;;;19.80;98.00;;;;;;5036092;28;20044;-77
2021/09/18 13:04:34;;;;;;;0.00;0.00;;;19.80;97.50;;;;;;5034889;28;20025;-75
2021/09/18 13:07:06;;;;;;;0.00;0.00;;;19.80;96.70;;;;;;5036928;28;20033;-74
2021/09/18 13:09:34;;;;;;;0.00;0.00;;;19.80;96.50;;;;;;5036077;28;20033;-76